Time;durP1;ratioP1;P1;durP2;ratioP2;P2;SDS_P1;SDS_P2;PMS_P1;PMS_P2;Temp;Humidity;BMP_temperature;BMP_pressure;BME280_temperature;BME280_humidity;BME280_pressure;Samples;Min_cycle;Max_cycle;Signal;HPM_P1;HPM_P2
2024/01/03 00:00:34;;;;;;;;;2.00;2.00;;;;;11.87;72.56;99438.94;5026404;28;45652;-62
2024/01/03 00:03:00;;;;;;;;;2.33;1.67;;;;;11.87;72.04;99426.69;5036767;28;45344;-62
2024/01/03 00:05:48;;;;;;;;;2.00;1.00;;;;;11.88;72.82;99433.63;5034154;28;45584;-64
2024/01/03 00:08:29;;;;;;;;;5.33;3.00;;;;;11.88;73.08;99423.16;5030484;28;45477;-62
2024/01/03 00:10:56;;;;;;;;;2.33;1.00;;;;;11.87;73.06;99412.72;5033950;28;45433;-63
2024/01/03 00:13:51;;;;;;;;;4.33;2.67;;;;;11.91;72.34;99416.97;5033266;28;45466;-62
2024/01/03 00:16:22;;;;;;;;;5.33;1.33;;;;;11.92;72.92;99418.69;4981913;28;45706;-62
2024/01/03 00:18:57;;;;;;;;;4.00;1.67;;;;;11.93;73.15;99416.94;5032166;28;45709;-63
2024/01/03 00:21:25;;;;;;;;;4.00;2.33;;;;;11.91;73.21;99422.22;5032893;28;45334;-62
2024/01/03 00:24:04;;;;;;;;;5.00;1.33;;;;;11.92;72.70;99417.84;5033311;28;45905;-63
2024/01/03 00:26:33;;;;;;;;;6.33;3.00;;;;;11.95;72.84;99421.25;5015541;28;45811;-63
2024/01/03 00:28:59;;;;;;;;;5.33;1.33;;;;;11.94;72.98;99416.06;5033711;28;45408;-62
2024/01/03 00:31:25;;;;;;;;;7.00;2.00;;;;;11.96;73.38;99422.09;5015357;28;45473;-62
2024/01/03 00:33:51;;;;;;;;;5.67;2.33;;;;;11.96;72.69;99436.09;5034384;28;45638;-65
2024/01/03 00:36:17;;;;;;;;;3.33;2.33;;;;;11.85;73.14;99425.81;5033794;28;45758;-63
2024/01/03 00:38:44;;;;;;;;;6.00;2.33;;;;;11.90;73.37;99420.50;5031537;28;47920;-62
2024/01/03 00:41:10;;;;;;;;;4.00;2.67;;;;;11.83;73.21;99422.38;5034895;28;45934;-62
2024/01/03 00:44:19;;;;;;;;;5.33;2.00;;;;;11.82;73.25;99420.66;5034629;28;45529;-64
2024/01/03 00:46:45;;;;;;;;;3.33;1.67;;;;;11.62;73.42;99392.25;5032369;28;45481;-63
2024/01/03 00:49:11;;;;;;;;;4.00;1.67;;;;;11.70;73.69;99397.34;5033353;28;45453;-65
2024/01/03 00:51:37;;;;;;;;;4.00;3.00;;;;;11.78;74.17;99416.38;5014973;28;45320;-62
2024/01/03 00:54:04;;;;;;;;;5.33;1.00;;;;;11.67;73.62;99392.16;5018752;28;45438;-63
2024/01/03 00:56:29;;;;;;;;;2.67;1.67;;;;;11.76;73.96;99399.81;5028792;28;45344;-63
2024/01/03 00:58:55;;;;;;;;;4.67;2.00;;;;;11.78;73.62;99399.78;5033642;28;46353;-65
2024/01/03 01:01:21;;;;;;;;;6.33;3.00;;;;;11.83;73.48;99411.03;5031876;28;45312;-62
2024/01/03 01:03:47;;;;;;;;;3.33;1.33;;;;;11.77;73.69;99406.78;5033698;28;45339;-63
2024/01/03 01:06:13;;;;;;;;;4.67;2.00;;;;;11.76;73.94;99405.06;5030075;28;45576;-65
2024/01/03 01:08:39;;;;;;;;;4.33;3.00;;;;;11.53;74.06;99371.53;5029670;28;45313;-63
2024/01/03 01:11:04;;;;;;;;;5.00;2.00;;;;;11.78;73.95;99405.88;5018037;28;45774;-66
2024/01/03 01:13:29;;;;;;;;;4.00;2.00;;;;;11.74;74.07;99401.59;5033332;28;45485;-63
2024/01/03 01:15:55;;;;;;;;;8.00;2.33;;;;;11.84;73.74;99411.00;5032904;28;45379;-62
2024/01/03 01:18:20;;;;;;;;;2.67;0.67;;;;;11.83;74.09;99411.88;5032634;28;46200;-65
2024/01/03 01:20:46;;;;;;;;;5.67;1.00;;;;;11.78;73.93;99400.63;5032855;28;45466;-64
2024/01/03 01:23:12;;;;;;;;;1.33;1.33;;;;;11.85;73.78;99415.34;5032844;28;45427;-63
2024/01/03 01:25:37;;;;;;;;;3.67;2.33;;;;;11.82;73.87;99390.94;5014528;28;45474;-62
2024/01/03 01:28:03;;;;;;;;;3.67;2.00;;;;;11.86;73.92;99400.44;5015230;28;46152;-63
2024/01/03 01:30:28;;;;;;;;;1.00;1.00;;;;;11.73;74.31;99388.53;5033748;28;45433;-63
2024/01/03 01:32:54;;;;;;;;;1.67;1.67;;;;;11.83;74.31;99405.78;5038396;28;45508;-63
2024/01/03 01:35:20;;;;;;;;;1.33;1.00;;;;;11.70;74.38;99389.47;5038434;28;45415;-64
2024/01/03 01:37:45;;;;;;;;;2.33;1.00;;;;;11.83;74.48;99408.41;5037425;28;46074;-63
2024/01/03 01:40:11;;;;;;;;;7.33;3.00;;;;;11.83;74.58;99398.75;5038389;28;45607;-63
2024/01/03 01:42:41;;;;;;;;;7.00;3.33;;;;;11.85;74.46;99404.84;5037611;28;45586;-63
2024/01/03 01:45:07;;;;;;;;;4.00;1.33;;;;;11.81;74.39;99404.94;5036243;28;45523;-63
2024/01/03 01:47:33;;;;;;;;;5.00;1.33;;;;;11.81;74.92;99412.81;5035876;28;46044;-62
2024/01/03 01:49:59;;;;;;;;;5.00;1.00;;;;;11.72;74.69;99398.19;5017847;28;45793;-63
2024/01/03 01:52:24;;;;;;;;;3.00;1.67;;;;;11.81;75.62;99411.03;5019976;28;45489;-63
2024/01/03 01:54:50;;;;;;;;;2.33;2.33;;;;;11.83;74.89;99422.38;5038707;28;45354;-63
2024/01/03 01:57:17;;;;;;;;;6.67;2.00;;;;;11.87;74.64;99418.81;5019926;28;46340;-62
2024/01/03 01:59:43;;;;;;;;;3.33;2.00;;;;;11.77;74.61;99401.56;5025742;28;45414;-64
2024/01/03 02:02:11;;;;;;;;;3.67;3.00;;;;;11.76;75.51;99393.72;5039227;28;45343;-63
2024/01/03 02:04:37;;;;;;;;;6.33;0.00;;;;;11.85;75.08;99403.97;5038271;28;45599;-63
2024/01/03 02:07:05;;;;;;;;;4.00;2.00;;;;;11.82;75.05;99389.19;5023721;28;45283;-63
2024/01/03 02:09:31;;;;;;;;;2.33;1.67;;;;;11.93;74.54;99403.81;5031930;28;45694;-63
2024/01/03 02:11:56;;;;;;;;;4.33;2.00;;;;;11.87;74.69;99392.56;5036702;28;45453;-64
2024/01/03 02:14:22;;;;;;;;;5.00;2.67;;;;;11.83;75.02;99379.53;5039087;28;45323;-64
2024/01/03 02:16:47;;;;;;;;;11.00;3.33;;;;;11.87;74.87;99395.19;5039477;28;45751;-65
2024/01/03 02:19:13;;;;;;;;;4.00;2.00;;;;;11.91;75.06;99392.50;5037567;28;45521;-63
2024/01/03 02:21:38;;;;;;;;;5.00;3.00;;;;;11.86;74.95;99377.72;5030482;28;45451;-65
2024/01/03 02:24:04;;;;;;;;;6.67;2.00;;;;;11.93;75.02;99390.69;5037746;28;45461;-63
2024/01/03 02:26:29;;;;;;;;;4.33;2.00;;;;;11.86;75.31;99385.59;5038967;28;46116;-65
2024/01/03 02:28:55;;;;;;;;;2.00;2.00;;;;;11.91;75.27;99392.50;5037767;28;45458;-63
2024/01/03 02:31:20;;;;;;;;;6.67;1.67;;;;;11.88;75.25;99383.78;5038114;28;45276;-64
2024/01/03 02:33:46;;;;;;;;;1.67;0.67;;;;;11.88;75.58;99383.78;5038237;28;45469;-66
2024/01/03 02:36:11;;;;;;;;;6.33;1.00;;;;;11.86;76.42;99385.59;5019958;28;46800;-63
2024/01/03 02:38:37;;;;;;;;;3.00;0.00;;;;;11.87;76.32;99387.34;5020507;28;45689;-63
2024/01/03 02:41:03;;;;;;;;;5.67;1.00;;;;;11.77;76.80;99380.56;5038315;28;45581;-64
2024/01/03 02:43:29;;;;;;;;;6.67;2.67;;;;;11.83;76.83;99396.13;5019826;28;45969;-63
2024/01/03 02:45:54;;;;;;;;;3.00;2.00;;;;;11.81;76.96;99382.19;5037909;28;45498;-62
2024/01/03 02:48:20;;;;;;;;;1.00;0.00;;;;;11.86;77.15;99387.31;5037526;28;45433;-62
2024/01/03 02:50:48;;;;;;;;;3.67;2.67;;;;;11.85;76.92;99383.00;5037411;28;45470;-61
2024/01/03 02:53:15;;;;;;;;;4.67;1.00;;;;;11.87;77.38;99392.56;5037654;28;45584;-64
2024/01/03 02:55:40;;;;;;;;;4.33;2.00;;;;;11.80;76.87;99356.03;5025117;28;45715;-63
2024/01/03 02:58:06;;;;;;;;;6.00;2.00;;;;;11.70;77.28;99358.00;5035208;28;45595;-63
2024/01/03 03:00:31;;;;;;;;;5.33;2.33;;;;;11.87;77.03;99389.97;5036923;28;45426;-63
2024/01/03 03:02:57;;;;;;;;;2.00;1.67;;;;;11.84;76.96;99382.13;5019363;28;45534;-63
2024/01/03 03:05:22;;;;;;;;;3.67;1.67;;;;;11.86;77.14;99375.09;5032631;28;46067;-62
2024/01/03 03:07:48;;;;;;;;;5.00;2.00;;;;;11.87;77.29;99383.84;5037242;28;45441;-62
2024/01/03 03:10:14;;;;;;;;;2.67;2.00;;;;;11.90;77.07;99375.03;5038470;28;45449;-63
2024/01/03 03:12:40;;;;;;;;;5.00;1.00;;;;;11.87;77.60;99358.47;5037741;28;45586;-64
2024/01/03 03:15:06;;;;;;;;;6.67;2.00;;;;;11.92;77.71;99362.75;5037306;28;45630;-62
2024/01/03 03:17:32;;;;;;;;;3.33;1.33;;;;;11.86;77.22;99355.84;5038064;28;45371;-62
2024/01/03 03:19:57;;;;;;;;;3.67;1.67;;;;;11.96;77.33;99367.00;5038440;28;45434;-63
2024/01/03 03:22:23;;;;;;;;;4.00;2.00;;;;;11.99;77.16;99370.41;5037638;28;45361;-62
2024/01/03 03:24:49;;;;;;;;;4.67;2.00;;;;;12.01;77.85;99376.50;5037029;28;45610;-63
2024/01/03 03:27:14;;;;;;;;;7.33;1.33;;;;;11.93;78.72;99356.59;5036912;28;45370;-63
2024/01/03 03:29:40;;;;;;;;;4.00;2.00;;;;;11.93;79.85;99385.44;5019381;28;45492;-64
2024/01/03 03:32:06;;;;;;;;;6.67;2.67;;;;;11.90;80.77;99383.75;5037322;28;45536;-63
2024/01/03 03:34:32;;;;;;;;;3.00;1.00;;;;;11.87;80.97;99387.34;5036496;28;45980;-62
2024/01/03 03:36:57;;;;;;;;;9.00;3.33;;;;;11.90;81.76;99375.03;5036830;28;45450;-63
2024/01/03 03:39:23;;;;;;;;;8.33;3.33;;;;;11.76;82.62;99354.34;5036628;28;45438;-63
2024/01/03 03:41:48;;;;;;;;;6.67;2.00;;;;;11.76;83.06;99368.34;5037091;28;45266;-62
2024/01/03 03:44:14;;;;;;;;;4.67;2.00;;;;;11.71;83.99;99372.84;5036093;28;46141;-62
2024/01/03 03:46:39;;;;;;;;;2.00;1.33;;;;;11.65;83.96;99344.13;5037004;28;45532;-62
2024/01/03 03:49:05;;;;;;;;;6.33;3.00;;;;;11.56;84.64;99353.09;5036435;28;45557;-62
2024/01/03 03:51:31;;;;;;;;;8.33;1.00;;;;;11.55;84.08;99340.00;5037078;28;45405;-62
2024/01/03 03:53:57;;;;;;;;;2.00;2.00;;;;;11.54;84.64;99333.06;5035910;28;45239;-62
2024/01/03 03:56:28;;;;;;;;;5.00;1.00;;;;;11.54;84.12;99343.53;5036625;28;45281;-62
2024/01/03 03:58:55;;;;;;;;;1.33;0.00;;;;;11.57;83.96;99309.38;5036259;28;45572;-63
2024/01/03 04:01:20;;;;;;;;;1.00;0.00;;;;;11.64;83.11;99335.41;5036371;28;45471;-62
2024/01/03 04:03:46;;;;;;;;;2.33;0.00;;;;;11.60;81.96;99319.78;5035901;28;46626;-61
2024/01/03 04:06:15;;;;;;;;;1.33;0.00;;;;;11.63;81.47;99317.94;5036125;28;45346;-63
2024/01/03 04:08:45;;;;;;;;;1.00;0.00;;;;;11.52;81.55;99325.22;5036639;28;45469;-62
2024/01/03 04:11:11;;;;;;;;;1.67;0.00;;;;;11.61;81.47;99347.75;5036545;28;45397;-62
2024/01/03 04:13:38;;;;;;;;;0.00;0.00;;;;;11.61;81.92;99342.50;5030050;28;45416;-62
2024/01/03 04:16:08;;;;;;;;;3.00;0.00;;;;;11.62;81.74;99358.16;5031119;28;45401;-62
2024/01/03 04:18:36;;;;;;;;;1.67;0.00;;;;;11.55;82.04;99353.13;5036409;28;45480;-64
2024/01/03 04:21:05;;;;;;;;;4.00;0.00;;;;;11.59;82.49;99373.13;5036196;28;45477;-63
2024/01/03 04:23:31;;;;;;;;;0.00;0.00;;;;;11.44;83.63;99343.75;5036832;28;46083;-63
2024/01/03 04:25:57;;;;;;;;;0.00;0.00;;;;;11.51;83.37;99361.94;5035987;28;45561;-62
2024/01/03 04:28:23;;;;;;;;;0.33;0.00;;;;;11.44;83.68;99346.38;5034380;28;45741;-62
2024/01/03 04:30:48;;;;;;;;;2.00;0.67;;;;;11.49;84.12;99359.38;5036151;28;45474;-62
2024/01/03 04:33:15;;;;;;;;;2.00;0.00;;;;;11.42;83.52;99342.06;5036092;28;45541;-62
2024/01/03 04:35:41;;;;;;;;;0.33;0.33;;;;;11.51;83.20;99372.44;5035691;28;45587;-62
2024/01/03 04:38:06;;;;;;;;;3.67;1.00;;;;;11.51;83.21;99377.69;5035835;28;45458;-63
2024/01/03 04:40:33;;;;;;;;;3.00;1.00;;;;;11.46;83.44;99357.69;5037397;28;45442;-62
2024/01/03 04:42:58;;;;;;;;;1.33;1.00;;;;;11.42;82.62;99352.56;5018959;28;46577;-62
2024/01/03 04:45:24;;;;;;;;;1.67;1.00;;;;;11.52;82.35;99374.19;5035707;28;45444;-63
2024/01/03 04:47:50;;;;;;;;;1.33;0.00;;;;;11.37;81.64;99355.28;5036156;28;45462;-63
2024/01/03 04:50:17;;;;;;;;;2.33;0.33;;;;;11.56;81.02;99375.84;5017994;28;45389;-62
2024/01/03 04:52:42;;;;;;;;;3.00;1.00;;;;;11.60;80.92;99385.34;5036840;28;45561;-62
2024/01/03 04:55:08;;;;;;;;;2.00;0.00;;;;;11.56;80.76;99381.09;5035727;28;45401;-62
2024/01/03 04:57:34;;;;;;;;;0.67;0.67;;;;;11.56;80.81;99375.84;5036176;28;45403;-63
2024/01/03 05:00:00;;;;;;;;;4.00;0.67;;;;;11.68;80.10;99388.66;5035678;28;45573;-62
2024/01/03 05:02:26;;;;;;;;;0.67;0.00;;;;;11.68;79.49;99391.28;5035566;28;45966;-63
2024/01/03 05:04:51;;;;;;;;;1.67;1.00;;;;;11.66;79.72;99386.06;5036459;28;45400;-63
2024/01/03 05:07:18;;;;;;;;;3.67;0.00;;;;;11.71;78.98;99398.22;5039379;28;45399;-64
2024/01/03 05:09:43;;;;;;;;;1.67;0.00;;;;;11.71;78.78;99400.81;5039826;28;45590;-64
2024/01/03 05:12:09;;;;;;;;;1.00;1.00;;;;;11.66;78.47;99387.81;5039527;28;45436;-64
2024/01/03 05:14:35;;;;;;;;;0.67;0.00;;;;;11.63;77.83;99386.13;5021213;28;45455;-62
2024/01/03 05:17:00;;;;;;;;;2.00;0.00;;;;;11.67;77.67;99394.78;5039032;28;45410;-62
2024/01/03 05:19:26;;;;;;;;;0.00;0.00;;;;;11.68;77.28;99405.25;5039548;28;45419;-64
2024/01/03 05:21:51;;;;;;;;;2.00;0.00;;;;;11.67;76.78;99405.28;5038974;28;45935;-64
2024/01/03 05:24:19;;;;;;;;;1.67;0.00;;;;;11.64;76.13;99402.72;5037808;28;45398;-64
2024/01/03 05:26:45;;;;;;;;;3.00;0.00;;;;;11.63;76.20;99396.63;5039226;28;45294;-62
2024/01/03 05:29:10;;;;;;;;;0.00;0.00;;;;;11.62;75.67;99402.75;5039491;28;45447;-63
2024/01/03 05:31:36;;;;;;;;;0.00;0.00;;;;;11.65;75.92;99407.94;5038788;28;45704;-62
2024/01/03 05:34:01;;;;;;;;;0.00;0.00;;;;;11.52;75.58;99390.75;5038833;28;45396;-66
2024/01/03 05:36:27;;;;;;;;;0.00;0.00;;;;;11.59;76.20;99408.09;5020987;28;45534;-63
2024/01/03 05:38:53;;;;;;;;;0.00;0.00;;;;;11.64;76.29;99416.69;5039792;28;45435;-62
2024/01/03 05:41:18;;;;;;;;;0.33;0.00;;;;;11.60;76.62;99417.69;5039190;28;46018;-61
2024/01/03 05:43:44;;;;;;;;;0.00;0.00;;;;;11.62;77.00;99425.50;5020950;28;45497;-64
2024/01/03 05:46:10;;;;;;;;;1.67;0.00;;;;;11.65;77.14;99430.66;5039667;28;45410;-62
2024/01/03 05:48:36;;;;;;;;;0.00;0.00;;;;;11.62;77.40;99436.00;5038835;28;45408;-63
2024/01/03 05:51:02;;;;;;;;;1.00;0.00;;;;;11.53;77.91;99431.84;5037914;28;46274;-62
2024/01/03 05:53:28;;;;;;;;;1.00;0.00;;;;;11.62;78.65;99443.84;5038233;28;45473;-64
2024/01/03 05:55:53;;;;;;;;;1.00;1.00;;;;;11.60;78.70;99443.91;5038298;28;45401;-63
2024/01/03 05:58:19;;;;;;;;;0.67;0.00;;;;;11.49;79.53;99432.81;5039028;28;45577;-65
2024/01/03 06:00:44;;;;;;;;;0.67;0.67;;;;;11.58;79.51;99456.19;5038504;28;46021;-63
2024/01/03 06:03:10;;;;;;;;;0.00;0.00;;;;;11.54;80.05;99454.53;5038322;28;45351;-63
2024/01/03 06:05:36;;;;;;;;;4.00;1.00;;;;;11.48;80.06;99438.91;5038339;28;45368;-63
2024/01/03 06:08:01;;;;;;;;;1.67;0.67;;;;;11.55;80.30;99458.88;5038538;28;45583;-63
2024/01/03 06:10:27;;;;;;;;;2.00;0.67;;;;;11.53;80.51;99454.56;5037719;28;46455;-62
2024/01/03 06:12:52;;;;;;;;;4.00;0.00;;;;;11.52;80.24;99448.44;5038470;28;45383;-62
2024/01/03 06:15:17;;;;;;;;;2.00;1.00;;;;;11.50;80.45;99449.38;5039112;28;45465;-62
2024/01/03 06:17:43;;;;;;;;;2.67;1.00;;;;;11.53;80.84;99438.81;5016320;28;45483;-62
2024/01/03 06:20:09;;;;;;;;;2.00;1.00;;;;;11.55;80.77;99453.63;5019693;28;46892;-63
2024/01/03 06:22:34;;;;;;;;;3.33;0.33;;;;;11.57;80.22;99445.72;5038025;28;45351;-64
2024/01/03 06:25:00;;;;;;;;;2.00;0.33;;;;;11.55;80.05;99444.91;5037406;28;45508;-63
2024/01/03 06:27:25;;;;;;;;;3.00;1.00;;;;;11.56;80.17;99444.88;5035294;28;45394;-64
2024/01/03 06:29:51;;;;;;;;;1.67;1.00;;;;;11.52;79.93;99456.31;5037826;28;45362;-62
2024/01/03 06:32:17;;;;;;;;;8.67;1.00;;;;;11.47;79.93;99442.44;5039093;28;45813;-63
2024/01/03 06:34:42;;;;;;;;;3.00;1.00;;;;;11.49;80.36;99443.28;5017056;28;45502;-63
2024/01/03 06:37:08;;;;;;;;;5.00;1.00;;;;;11.57;79.97;99457.06;5032695;28;45466;-63
2024/01/03 06:39:33;;;;;;;;;1.33;1.00;;;;;11.55;80.01;99456.25;5012480;28;45759;-65
2024/01/03 06:41:59;;;;;;;;;5.67;1.00;;;;;11.49;79.85;99450.31;5038368;28;45431;-64
2024/01/03 06:44:26;;;;;;;;;3.00;1.00;;;;;11.51;80.04;99459.84;5029810;28;45430;-63
2024/01/03 06:46:51;;;;;;;;;1.33;1.33;;;;;11.61;80.02;99468.38;5013596;28;45455;-63
2024/01/03 06:49:17;;;;;;;;;1.00;0.67;;;;;11.60;79.95;99477.13;5026856;28;45579;-62
2024/01/03 06:51:44;;;;;;;;;4.00;3.00;;;;;11.57;79.80;99471.94;5028257;28;45603;-64
2024/01/03 06:54:10;;;;;;;;;3.33;1.00;;;;;11.60;79.61;99478.00;5016220;28;45273;-64
2024/01/03 06:56:35;;;;;;;;;3.00;1.00;;;;;11.38;80.16;99446.13;5037285;28;45468;-64
2024/01/03 06:59:01;;;;;;;;;5.33;2.00;;;;;11.45;79.94;99465.22;5026953;28;45816;-63
2024/01/03 07:01:26;;;;;;;;;3.00;1.00;;;;;11.52;80.19;99482.53;5033983;28;45574;-64
2024/01/03 07:03:52;;;;;;;;;4.33;2.00;;;;;11.51;80.22;99479.94;5029782;28;45498;-63
2024/01/03 07:06:18;;;;;;;;;6.00;0.67;;;;;11.46;80.07;99478.31;5029780;28;45439;-64
2024/01/03 07:08:43;;;;;;;;;2.67;1.33;;;;;11.51;80.06;99472.97;5030398;28;46061;-64
2024/01/03 07:11:12;;;;;;;;;2.00;2.00;;;;;11.44;80.22;99472.22;5022319;28;45465;-63
2024/01/03 07:13:37;;;;;;;;;2.00;1.67;;;;;11.54;79.82;99472.03;5032177;28;45470;-64
2024/01/03 07:16:03;;;;;;;;;0.00;0.00;;;;;11.52;79.78;99486.94;5033058;28;45442;-62
2024/01/03 07:18:29;;;;;;;;;3.67;0.67;;;;;11.51;80.44;99483.44;5019216;28;45645;-62
2024/01/03 07:20:54;;;;;;;;;2.00;0.00;;;;;11.44;80.42;99468.75;5037123;28;45299;-63
2024/01/03 07:23:20;;;;;;;;;3.33;2.33;;;;;11.42;80.13;99475.78;5035606;28;45470;-63
2024/01/03 07:25:45;;;;;;;;;6.67;1.00;;;;;11.45;80.30;99486.19;5037957;28;45513;-62
2024/01/03 07:28:11;;;;;;;;;2.33;0.33;;;;;11.41;80.46;99482.78;5036375;28;45666;-62
2024/01/03 07:30:36;;;;;;;;;3.67;1.00;;;;;11.47;80.12;99489.66;5016729;28;45585;-64
2024/01/03 07:33:02;;;;;;;;;4.00;2.00;;;;;11.46;80.04;99491.41;5036747;28;45460;-63
2024/01/03 07:35:28;;;;;;;;;5.33;2.33;;;;;11.39;80.33;99467.97;5034380;28;45465;-63
2024/01/03 07:37:53;;;;;;;;;6.33;2.00;;;;;11.46;80.37;99494.03;5036946;28;45336;-63
2024/01/03 07:40:19;;;;;;;;;5.33;1.33;;;;;11.39;80.10;99483.69;5037015;28;45402;-63
2024/01/03 07:42:44;;;;;;;;;2.33;2.00;;;;;11.37;80.07;99491.59;5018659;28;45432;-63
2024/01/03 07:45:10;;;;;;;;;6.67;1.33;;;;;11.46;80.14;99504.53;5020207;28;45474;-63
2024/01/03 07:47:35;;;;;;;;;6.00;2.33;;;;;11.50;80.45;99499.22;5036482;28;46177;-63
2024/01/03 07:50:01;;;;;;;;;2.00;2.00;;;;;11.49;79.82;99502.75;5036783;28;45468;-63
2024/01/03 07:52:27;;;;;;;;;3.00;1.67;;;;;11.48;79.98;99493.13;5036622;28;45435;-62
2024/01/03 07:54:53;;;;;;;;;3.67;1.67;;;;;11.49;79.70;99495.72;5033218;28;45404;-64
2024/01/03 07:57:19;;;;;;;;;5.33;3.33;;;;;11.52;79.20;99505.28;5014893;28;46082;-63
2024/01/03 07:59:45;;;;;;;;;4.33;1.00;;;;;11.51;79.37;99499.19;5036434;28;45446;-62
2024/01/03 08:02:13;;;;;;;;;3.67;2.00;;;;;11.54;79.80;99504.34;5037728;28;45565;-64
2024/01/03 08:04:40;;;;;;;;;5.33;1.00;;;;;11.57;79.03;99501.66;5037866;28;45331;-63
2024/01/03 08:07:06;;;;;;;;;2.67;1.33;;;;;11.60;79.69;99495.47;5010375;28;45592;-63
2024/01/03 08:09:37;;;;;;;;;14.33;3.33;;;;;11.52;79.11;99494.78;5035843;28;45610;-63
2024/01/03 08:12:08;;;;;;;;;3.33;2.00;;;;;11.59;78.55;99488.53;5036315;28;45371;-63
2024/01/03 08:14:34;;;;;;;;;2.67;1.67;;;;;11.62;77.95;99507.66;5036427;28;45577;-63
2024/01/03 08:17:01;;;;;;;;;6.33;1.33;;;;;11.65;77.53;99501.47;5031713;28;45450;-64
2024/01/03 08:19:26;;;;;;;;;3.00;1.33;;;;;11.61;78.13;99511.19;5026928;28;45387;-63
2024/01/03 08:21:52;;;;;;;;;3.67;3.00;;;;;11.70;78.16;99519.75;5036670;28;45868;-63
2024/01/03 08:24:18;;;;;;;;;1.67;0.33;;;;;11.69;79.22;99524.13;5017271;28;46179;-62
2024/01/03 08:26:45;;;;;;;;;3.33;1.33;;;;;11.63;79.69;99514.66;5023048;28;46558;-63
2024/01/03 08:29:11;;;;;;;;;1.00;1.00;;;;;11.70;80.42;99520.63;5024534;28;45309;-64
2024/01/03 08:31:37;;;;;;;;;5.67;1.67;;;;;11.72;81.17;99531.94;5035090;28;45446;-64
2024/01/03 08:34:02;;;;;;;;;2.33;1.00;;;;;11.75;81.19;99526.63;5036292;28;45457;-63
2024/01/03 08:36:42;;;;;;;;;3.67;2.33;;;;;11.71;81.80;99527.59;5035916;28;45702;-64
2024/01/03 08:39:08;;;;;;;;;10.00;3.00;;;;;11.71;81.71;99524.97;5037080;28;45544;-66
2024/01/03 08:41:34;;;;;;;;;4.00;1.00;;;;;11.69;82.25;99524.13;5025047;28;45916;-66
2024/01/03 08:44:02;;;;;;;;;3.33;1.00;;;;;11.69;82.70;99526.75;5039763;28;45596;-64
2024/01/03 08:46:31;;;;;;;;;2.00;1.00;;;;;11.70;82.61;99524.97;5039520;28;46687;-65
2024/01/03 08:48:57;;;;;;;;;4.00;1.33;;;;;11.70;82.60;99525.88;5040205;28;45422;-64
2024/01/03 08:51:23;;;;;;;;;2.67;2.33;;;;;11.67;82.82;99511.06;5040691;28;45408;-64
2024/01/03 08:53:49;;;;;;;;;2.67;2.00;;;;;11.68;82.97;99512.78;5035433;28;45804;-65
2024/01/03 08:56:16;;;;;;;;;4.67;2.00;;;;;11.82;82.95;99512.47;5030160;28;45536;-64
2024/01/03 08:58:43;;;;;;;;;3.33;3.00;;;;;12.72;80.76;99505.94;5020730;28;45446;-64
2024/01/03 09:01:14;;;;;;;;;1.67;1.00;;;;;13.85;76.59;99508.88;5038898;28;45475;-66
2024/01/03 09:03:40;;;;;;;;;3.00;1.33;;;;;15.07;72.70;99498.69;5039221;28;45359;-66
2024/01/03 09:06:06;;;;;;;;;3.67;2.67;;;;;16.14;68.82;99506.94;5038812;28;45395;-64
2024/01/03 09:08:32;;;;;;;;;9.00;2.00;;;;;17.03;65.14;99489.13;5038774;28;45643;-64
2024/01/03 09:10:58;;;;;;;;;6.00;3.00;;;;;18.01;61.60;99513.75;5039257;28;45235;-64
2024/01/03 09:13:23;;;;;;;;;11.00;5.00;;;;;18.79;58.54;99486.03;5039310;28;45419;-63
2024/01/03 09:15:49;;;;;;;;;3.33;3.00;;;;;18.85;57.47;99488.34;5038819;28;46009;-63
2024/01/03 09:18:14;;;;;;;;;7.00;3.00;;;;;18.21;56.82;99492.41;5004374;28;45360;-62
2024/01/03 09:20:40;;;;;;;;;5.00;2.67;;;;;17.76;58.41;99501.63;5038927;28;45292;-63
2024/01/03 09:23:06;;;;;;;;;5.00;2.00;;;;;18.72;56.04;99492.53;5021135;28;45391;-63
2024/01/03 09:25:31;;;;;;;;;5.67;1.67;;;;;18.72;54.94;99507.56;5024456;28;45533;-61
2024/01/03 09:27:57;;;;;;;;;5.33;2.33;;;;;17.93;56.00;99507.94;5038666;28;45445;-62
2024/01/03 09:30:23;;;;;;;;;6.00;3.00;;;;;17.14;57.27;99500.94;5037003;28;45382;-61
2024/01/03 09:32:50;;;;;;;;;5.00;1.00;;;;;16.46;59.10;99500.31;5027253;28;45517;-62
2024/01/03 09:35:15;;;;;;;;;5.67;3.00;;;;;15.99;60.22;99502.25;5037920;28;46289;-62
2024/01/03 09:37:41;;;;;;;;;5.00;2.00;;;;;15.87;61.10;99498.31;5034928;28;45327;-63
2024/01/03 09:40:09;;;;;;;;;4.00;3.00;;;;;17.16;58.94;99498.22;5021466;28;45434;-62
2024/01/03 09:42:36;;;;;;;;;6.33;3.33;;;;;16.88;58.52;99514.47;5016774;28;45786;-63
2024/01/03 09:45:02;;;;;;;;;5.00;3.00;;;;;16.22;59.83;99511.91;5018847;28;45502;-62
2024/01/03 09:47:28;;;;;;;;;5.67;2.33;;;;;15.80;60.92;99510.94;5017841;28;45618;-63
2024/01/03 09:49:54;;;;;;;;;6.67;2.67;;;;;15.39;62.73;99515.09;5029702;28;45523;-64
2024/01/03 09:52:19;;;;;;;;;9.67;2.33;;;;;14.97;63.68;99513.09;5023815;28;45489;-64
2024/01/03 09:54:45;;;;;;;;;9.67;3.00;;;;;14.69;64.71;99513.19;5018903;28;45585;-62
2024/01/03 09:57:12;;;;;;;;;5.00;4.00;;;;;14.38;65.53;99501.06;5020603;28;45602;-63
2024/01/03 09:59:38;;;;;;;;;4.00;3.67;;;;;14.32;66.31;99510.00;4999483;28;45654;-63
2024/01/03 10:02:06;;;;;;;;;2.67;2.00;;;;;14.12;66.60;99494.00;5029876;28;45498;-61
2024/01/03 10:04:33;;;;;;;;;7.67;4.00;;;;;14.23;67.27;99536.63;5028756;28;46769;-63
2024/01/03 10:06:59;;;;;;;;;8.33;4.00;;;;;14.09;67.42;99505.47;5039173;28;45327;-62
2024/01/03 10:09:24;;;;;;;;;2.33;1.00;;;;;13.98;68.47;99526.88;5022330;28;45447;-62
2024/01/03 10:11:52;;;;;;;;;7.67;2.00;;;;;14.75;67.27;99507.72;5008777;28;45381;-61
2024/01/03 10:14:21;;;;;;;;;5.33;2.67;;;;;14.62;66.40;99509.94;5028509;28;46081;-62
2024/01/03 10:16:48;;;;;;;;;3.67;1.00;;;;;14.57;67.55;99519.78;5031129;28;45423;-62
2024/01/03 10:19:18;;;;;;;;;3.00;3.00;;;;;15.13;65.44;99524.81;5026599;28;45501;-61
2024/01/03 10:21:48;;;;;;;;;5.00;3.33;;;;;15.58;64.81;99512.63;5037799;28;45585;-62
2024/01/03 10:24:13;;;;;;;;;5.33;2.67;;;;;15.26;64.55;99515.56;5028654;28;46174;-62
2024/01/03 10:26:39;;;;;;;;;8.67;5.00;;;;;15.01;65.11;99514.72;5031276;28;46147;-61
2024/01/03 10:29:22;;;;;;;;;14.00;4.33;;;;;14.65;66.17;99515.09;5029939;28;45568;-66
2024/01/03 10:31:49;;;;;;;;;6.00;2.00;;;;;14.45;67.21;99502.56;5034317;28;45356;-64
2024/01/03 10:34:22;;;;;;;;;6.33;2.00;;;;;15.47;65.95;99494.53;5020587;28;45541;-62
2024/01/03 10:36:49;;;;;;;;;4.33;1.00;;;;;17.80;59.86;99470.56;5037640;28;45330;-63
2024/01/03 10:39:17;;;;;;;;;3.67;2.00;;;;;19.30;54.98;99471.88;5038160;28;45357;-63
2024/01/03 10:41:44;;;;;;;;;3.00;1.67;;;;;18.23;56.05;99485.25;5033487;28;45245;-64
2024/01/03 10:44:12;;;;;;;;;7.00;2.00;;;;;18.14;57.17;99483.06;5035385;28;45463;-63
2024/01/03 10:46:39;;;;;;;;;4.00;1.00;;;;;20.20;53.20;99476.59;5033264;28;45403;-62
2024/01/03 10:49:07;;;;;;;;;7.00;2.00;;;;;21.93;48.46;99470.50;5011170;28;45477;-63
2024/01/03 10:51:39;;;;;;;;;2.33;1.33;;;;;23.07;45.55;99445.88;5037380;28;45489;-64
2024/01/03 10:54:07;;;;;;;;;3.00;2.33;;;;;22.85;45.08;99469.66;5037994;28;46621;-62
2024/01/03 10:56:35;;;;;;;;;5.33;2.67;;;;;22.10;45.84;99472.03;5024865;28;45349;-62
2024/01/03 10:59:02;;;;;;;;;2.67;2.00;;;;;21.93;45.94;99478.50;5030199;28;45281;-62
2024/01/03 11:01:32;;;;;;;;;2.33;2.00;;;;;21.25;46.89;99468.56;5030234;28;45427;-61
2024/01/03 11:04:23;;;;;;;;;5.33;2.67;;;;;22.99;44.71;99472.28;5017732;28;45517;-62
2024/01/03 11:07:01;;;;;;;;;5.67;2.00;;;;;24.67;42.15;99454.75;4983961;28;45347;-62
2024/01/03 11:09:27;;;;;;;;;6.00;4.33;;;;;24.31;40.88;99446.69;5025819;28;45481;-63
2024/01/03 11:12:07;;;;;;;;;4.50;3.00;;;;;24.20;40.89;99445.78;5021736;28;45375;-64
2024/01/03 11:14:33;;;;;;;;;5.50;4.00;;;;;25.43;39.59;99439.84;5021530;28;45465;-62
2024/01/03 11:16:59;;;;;;;;;5.50;4.00;;;;;26.57;37.52;99417.06;5005135;28;45726;-63
2024/01/03 11:19:29;;;;;;;;;1.75;1.50;;;;;26.68;36.38;99433.13;5025602;28;45477;-64
2024/01/03 11:21:55;;;;;;;;;4.75;3.75;;;;;26.45;36.74;99435.03;5026794;28;45542;-64
2024/01/03 11:24:20;;;;;;;;;5.25;4.50;;;;;26.37;35.84;99440.22;5030839;28;45571;-66
2024/01/03 11:26:52;;;;;;;;;5.00;2.00;;;;;24.60;38.52;99424.06;5036417;28;45359;-63
2024/01/03 11:29:36;;;;;;;;;5.50;2.25;;;;;23.01;40.99;99443.63;5023771;28;45601;-62
2024/01/03 11:32:04;;;;;;;;;8.00;3.00;;;;;22.04;42.47;99411.97;5026430;28;45355;-63